createdAt,value
2022-08-06T00:01:56.982Z,96710.00
2022-08-06T00:06:01.773Z,96717.00
2022-08-06T00:10:07.043Z,96735.00
2022-08-06T00:14:13.710Z,96743.00
2022-08-06T00:18:18.290Z,96736.00
2022-08-06T00:22:27.696Z,96722.00
2022-08-06T00:26:32.327Z,96716.00
2022-08-06T00:30:35.618Z,96726.00
2022-08-06T00:34:38.766Z,96726.00
2022-08-06T00:38:44.689Z,96750.00
2022-08-06T00:42:47.935Z,96748.00
2022-08-06T00:46:53.415Z,96758.00
2022-08-06T00:50:56.575Z,96734.00
2022-08-06T00:55:01.220Z,96756.00
2022-08-06T00:59:05.489Z,96770.00
2022-08-06T01:03:27.779Z,96755.00
2022-08-06T01:07:51.195Z,96763.00
2022-08-06T01:11:59.876Z,96781.00
2022-08-06T01:16:30.173Z,96787.00
2022-08-06T01:22:01.184Z,96791.00
2022-08-06T01:25:47.657Z,96791.00
2022-08-06T01:29:57.470Z,96799.00
2022-08-06T01:34:05.699Z,96785.00
2022-08-06T01:38:17.840Z,96794.00
2022-08-06T01:42:35.755Z,96794.00
2022-08-06T01:46:46.068Z,96787.00
2022-08-06T01:50:52.779Z,96781.00
2022-08-06T01:54:59.498Z,96795.00
2022-08-06T01:59:09.284Z,96792.00
2022-08-06T02:03:22.176Z,96789.00
2022-08-06T02:08:36.844Z,96788.00
2022-08-06T02:12:03.454Z,96782.00
2022-08-06T02:16:12.009Z,96778.00
2022-08-06T02:20:36.891Z,96792.00
2022-08-06T02:24:41.813Z,96794.00
2022-08-06T02:28:50.392Z,96790.00
2022-08-06T02:32:53.833Z,96793.00
2022-08-06T02:37:05.806Z,96780.00
2022-08-06T02:41:18.176Z,96771.00
2022-08-06T02:45:27.638Z,96785.00
2022-08-06T02:49:42.488Z,96797.00
2022-08-06T02:54:04.357Z,96795.00
2022-08-06T02:58:15.421Z,96822.00
2022-08-06T03:02:24.018Z,96807.00
2022-08-06T03:06:32.991Z,96809.00
2022-08-06T03:10:38.602Z,96809.00
2022-08-06T03:15:07.675Z,96815.00
2022-08-06T03:19:58.247Z,96834.00
2022-08-06T03:23:33.344Z,96842.00
2022-08-06T03:27:43.010Z,96830.00
2022-08-06T03:31:58.434Z,96824.00
2022-08-06T03:36:04.110Z,96834.00
2022-08-06T03:40:10.094Z,96840.00
2022-08-06T03:44:16.717Z,96833.00
2022-08-06T03:48:36.358Z,96855.00
2022-08-06T03:52:45.130Z,96839.00
2022-08-06T03:56:55.013Z,96856.00
2022-08-06T04:01:06.719Z,96860.00
2022-08-06T04:05:13.282Z,96861.00
2022-08-06T04:09:17.528Z,96867.00
2022-08-06T04:14:06.300Z,96874.00
2022-08-06T04:18:04.044Z,96863.00
2022-08-06T04:22:58.260Z,96860.00
2022-08-06T04:26:32.643Z,96870.00
2022-08-06T04:30:38.873Z,96886.00
2022-08-06T04:36:05.787Z,96874.00
2022-08-06T04:39:20.678Z,96881.00
2022-08-06T04:43:38.809Z,96872.00
2022-08-06T04:47:52.443Z,96891.00
2022-08-06T04:52:36.331Z,96893.00
2022-08-06T04:56:20.219Z,96898.00
2022-08-06T05:00:33.554Z,96901.00
2022-08-06T05:04:38.257Z,96905.00
2022-08-06T05:08:52.069Z,96902.00
2022-08-06T05:12:58.348Z,96914.00
2022-08-06T05:17:04.142Z,96921.00
2022-08-06T05:21:14.875Z,96930.00
2022-08-06T05:25:27.363Z,96931.00
2022-08-06T05:29:32.066Z,96946.00
2022-08-06T05:33:41.872Z,96946.00
2022-08-06T05:38:01.356Z,96947.00
2022-08-06T05:42:09.394Z,96946.00
2022-08-06T05:46:17.373Z,96941.00
2022-08-06T05:50:25.467Z,96944.00
2022-08-06T05:54:36.195Z,96960.00
2022-08-06T05:58:51.378Z,96962.00
2022-08-06T06:03:01.849Z,96974.00
2022-08-06T06:07:08.721Z,96972.00
2022-08-06T06:11:13.559Z,96975.00
2022-08-06T06:16:00.871Z,96982.00
2022-08-06T06:19:52.106Z,96997.00
2022-08-06T06:24:02.772Z,97005.00
2022-08-06T06:28:28.464Z,97003.00
2022-08-06T06:32:45.019Z,97007.00
2022-08-06T06:36:58.278Z,97018.00
2022-08-06T06:41:20.039Z,97009.00
2022-08-06T06:46:07.227Z,97014.00
2022-08-06T06:50:04.011Z,97015.00
2022-08-06T06:54:22.644Z,97023.00
2022-08-06T06:58:33.490Z,97027.00
2022-08-06T07:02:41.992Z,97029.00
2022-08-06T07:06:57.757Z,97043.00
2022-08-06T07:11:03.898Z,97040.00
2022-08-06T07:15:15.000Z,97042.00
2022-08-06T07:19:22.885Z,97051.00
2022-08-06T07:24:07.450Z,97048.00
2022-08-06T07:27:55.597Z,97050.00
2022-08-06T07:32:00.775Z,97057.00
2022-08-06T07:36:04.504Z,97047.00
2022-08-06T07:40:17.778Z,97050.00
2022-08-06T07:44:26.810Z,97063.00
2022-08-06T07:48:35.182Z,97067.00
2022-08-06T07:52:42.643Z,97064.00
2022-08-06T07:56:59.751Z,97064.00
2022-08-06T08:01:04.245Z,97069.00
2022-08-06T08:05:39.469Z,97080.00
2022-08-06T08:10:01.482Z,97079.00
2022-08-06T08:14:09.352Z,97082.00
2022-08-06T08:18:16.342Z,97089.00
2022-08-06T08:22:24.243Z,97086.00
2022-08-06T08:26:43.452Z,97096.00
2022-08-06T08:30:52.924Z,97097.00
2022-08-06T08:34:57.308Z,97103.00
2022-08-06T08:39:06.119Z,97105.00
2022-08-06T08:43:15.283Z,97104.00
2022-08-06T08:47:38.820Z,97117.00
2022-08-06T08:51:49.700Z,97116.00
2022-08-06T08:57:09.507Z,97118.00
2022-08-06T09:00:26.367Z,97110.00
2022-08-06T09:04:34.085Z,97106.00
2022-08-06T09:09:02.673Z,97116.00
2022-08-06T09:13:01.742Z,97118.00
2022-08-06T09:17:12.494Z,97116.00
2022-08-06T09:21:31.057Z,97118.00
2022-08-06T09:25:49.765Z,97112.00
2022-08-06T09:30:04.429Z,97109.00
2022-08-06T09:34:31.024Z,97108.00
2022-08-06T09:38:49.468Z,97125.00
2022-08-06T09:42:54.138Z,97120.00
2022-08-06T09:46:58.938Z,97135.00
2022-08-06T09:51:02.932Z,97126.00
2022-08-06T09:55:16.970Z,97132.00
2022-08-06T09:59:20.676Z,97142.00
2022-08-06T10:04:01.867Z,97142.00
2022-08-06T10:07:52.187Z,97136.00
2022-08-06T10:11:58.864Z,97130.00
2022-08-06T10:16:16.406Z,97133.00
2022-08-06T10:20:20.304Z,97143.00
2022-08-06T10:24:26.104Z,97131.00
2022-08-06T10:28:49.037Z,97136.00
2022-08-06T10:32:58.898Z,97129.00
2022-08-06T10:37:07.806Z,97129.00
2022-08-06T10:41:59.621Z,97134.00
2022-08-06T10:45:49.929Z,97133.00
2022-08-06T10:50:32.102Z,97130.00
2022-08-06T10:54:22.487Z,97136.00
2022-08-06T10:58:28.315Z,97138.00
2022-08-06T11:02:40.231Z,97131.00
2022-08-06T11:08:09.136Z,97130.00
2022-08-06T11:12:17.348Z,97138.00
2022-08-06T11:16:31.393Z,97133.00
2022-08-06T11:20:45.079Z,97121.00
2022-08-06T11:24:57.461Z,97114.00
2022-08-06T11:29:02.586Z,97114.00
2022-08-06T11:33:06.168Z,97120.00
2022-08-06T11:38:00.572Z,97112.00
2022-08-06T11:41:56.549Z,97109.00
2022-08-06T11:46:35.450Z,97123.00
2022-08-06T11:50:41.267Z,97118.00
2022-08-06T11:55:03.490Z,97118.00
2022-08-06T11:59:17.079Z,97108.00
2022-08-06T12:03:44.511Z,97109.00
2022-08-06T12:08:22.010Z,97105.00
2022-08-06T12:12:45.032Z,97110.00
2022-08-06T12:16:53.137Z,97107.00
2022-08-06T12:20:58.140Z,97110.00
2022-08-06T12:25:10.885Z,97094.00
2022-08-06T12:29:17.275Z,97095.00
2022-08-06T12:33:27.054Z,97090.00
2022-08-06T12:37:47.542Z,97096.00
2022-08-06T12:41:54.285Z,97087.00
2022-08-06T12:46:06.891Z,97084.00
2022-08-06T12:50:29.870Z,97075.00
2022-08-06T12:54:33.608Z,97083.00
2022-08-06T12:58:42.616Z,97081.00
2022-08-06T13:02:50.459Z,97072.00
2022-08-06T13:06:54.080Z,97076.00
2022-08-06T13:11:00.313Z,97076.00
2022-08-06T13:15:18.385Z,97087.00
2022-08-06T13:19:28.091Z,97073.00
2022-08-06T13:23:36.947Z,97064.00
2022-08-06T13:27:56.175Z,97058.00
2022-08-06T13:32:11.056Z,97052.00
2022-08-06T13:36:33.327Z,97054.00
2022-08-06T13:40:47.365Z,97051.00
2022-08-06T13:44:55.288Z,97043.00
2022-08-06T13:49:01.938Z,97043.00
2022-08-06T13:53:07.600Z,97041.00
2022-08-06T13:57:17.290Z,97042.00
2022-08-06T14:01:20.435Z,97040.00
2022-08-06T14:05:24.234Z,97032.00
2022-08-06T14:09:41.142Z,97029.00
2022-08-06T14:13:55.035Z,97034.00
2022-08-06T14:17:58.353Z,97041.00
2022-08-06T14:22:01.607Z,97036.00
2022-08-06T14:26:12.596Z,97038.00
2022-08-06T14:30:25.446Z,97033.00
2022-08-06T14:34:35.824Z,97033.00
2022-08-06T14:38:42.514Z,97035.00
2022-08-06T14:43:04.544Z,97025.00
2022-08-06T14:47:10.390Z,97026.00
2022-08-06T14:51:23.544Z,97034.00
2022-08-06T14:55:26.775Z,97033.00
2022-08-06T14:59:48.261Z,97036.00
2022-08-06T15:03:52.626Z,97038.00
2022-08-06T15:07:57.358Z,97031.00
2022-08-06T15:12:01.228Z,97026.00
2022-08-06T15:16:11.027Z,97033.00
2022-08-06T15:20:33.436Z,97023.00
2022-08-06T15:24:38.640Z,97028.00
2022-08-06T15:28:46.409Z,97022.00
2022-08-06T15:32:57.171Z,97024.00
2022-08-06T15:37:03.267Z,97016.00
2022-08-06T15:41:07.805Z,97012.00
2022-08-06T15:45:16.975Z,97016.00
2022-08-06T15:50:03.982Z,97014.00
2022-08-06T15:54:01.914Z,97015.00
2022-08-06T15:58:10.361Z,97012.00
2022-08-06T16:02:13.769Z,97013.00
2022-08-06T16:06:36.327Z,97009.00
2022-08-06T16:10:43.954Z,97006.00
2022-08-06T16:14:57.443Z,97009.00
2022-08-06T16:19:02.428Z,97008.00
2022-08-06T16:23:38.205Z,97010.00
2022-08-06T16:27:37.986Z,97010.00
2022-08-06T16:31:48.503Z,97012.00
2022-08-06T16:35:56.853Z,97009.00
2022-08-06T16:40:04.879Z,97011.00
2022-08-06T16:44:08.815Z,97015.00
2022-08-06T16:48:25.094Z,97004.00
2022-08-06T16:52:42.530Z,97009.00
2022-08-06T16:56:49.740Z,97016.00
2022-08-06T17:00:59.642Z,97012.00
2022-08-06T17:05:21.540Z,97010.00
2022-08-06T17:09:25.408Z,97011.00
2022-08-06T17:17:53.770Z,97009.00
2022-08-06T17:22:00.673Z,97013.00
2022-08-06T17:26:04.834Z,97007.00
2022-08-06T17:30:16.049Z,97007.00
2022-08-06T17:34:19.601Z,97009.00
2022-08-06T17:38:22.878Z,97007.00
2022-08-06T17:42:26.876Z,96998.00
2022-08-06T17:46:36.616Z,97005.00
2022-08-06T17:50:42.642Z,97001.00
2022-08-06T17:54:54.413Z,96999.00
2022-08-06T17:59:17.687Z,97008.00
2022-08-06T18:03:50.304Z,97004.00
2022-08-06T18:08:10.804Z,97014.00
2022-08-06T18:12:13.275Z,97013.00
2022-08-06T18:16:16.422Z,97015.00
2022-08-06T18:20:28.585Z,97015.00
2022-08-06T18:24:43.375Z,97018.00
2022-08-06T18:28:53.638Z,97018.00
2022-08-06T18:32:56.977Z,97026.00
2022-08-06T18:37:20.026Z,97031.00
2022-08-06T18:41:24.801Z,97037.00
2022-08-06T18:45:31.285Z,97043.00
2022-08-06T18:49:51.354Z,97046.00
2022-08-06T18:54:02.111Z,97045.00
2022-08-06T18:58:13.831Z,97063.00
2022-08-06T19:02:23.164Z,97061.00
2022-08-06T19:06:30.184Z,97065.00
2022-08-06T19:10:34.949Z,97063.00
2022-08-06T19:14:44.359Z,97070.00
2022-08-06T19:18:57.563Z,97061.00
2022-08-06T19:23:03.005Z,97058.00
2022-08-06T19:27:12.554Z,97056.00
2022-08-06T19:31:23.290Z,97064.00
2022-08-06T19:36:06.786Z,97071.00
2022-08-06T19:40:12.404Z,97072.00
2022-08-06T19:44:36.016Z,97079.00
2022-08-06T19:48:45.557Z,97076.00
2022-08-06T19:52:50.197Z,97069.00
2022-08-06T19:56:53.643Z,97069.00
2022-08-06T20:01:31.223Z,97074.00
2022-08-06T20:06:19.817Z,97081.00
2022-08-06T20:09:59.491Z,97068.00
2022-08-06T20:14:04.036Z,97073.00
2022-08-06T20:18:08.760Z,97077.00
2022-08-06T20:22:13.895Z,97075.00
2022-08-06T20:26:35.563Z,97070.00
2022-08-06T20:30:49.691Z,97071.00
2022-08-06T20:35:00.092Z,97074.00
2022-08-06T20:39:03.602Z,97064.00
2022-08-06T20:43:11.730Z,97071.00
2022-08-06T20:47:48.559Z,97070.00
2022-08-06T20:51:42.682Z,97074.00
2022-08-06T20:55:46.853Z,97068.00
2022-08-06T20:59:50.872Z,97059.00
2022-08-06T21:05:12.873Z,97065.00
2022-08-06T21:08:18.918Z,97065.00
2022-08-06T21:12:22.200Z,97065.00
2022-08-06T21:16:32.601Z,97055.00
2022-08-06T21:20:37.782Z,97058.00
2022-08-06T21:24:42.388Z,97063.00
2022-08-06T21:28:54.439Z,97061.00
2022-08-06T21:32:58.511Z,97051.00
2022-08-06T21:37:02.973Z,97060.00
2022-08-06T21:41:49.736Z,97070.00
2022-08-06T21:46:04.696Z,97061.00
2022-08-06T21:50:25.012Z,97068.00
2022-08-06T21:54:29.656Z,97069.00
2022-08-06T21:58:35.382Z,97063.00
2022-08-06T22:02:38.538Z,97064.00
2022-08-06T22:06:43.997Z,97070.00
2022-08-06T22:10:52.828Z,97077.00
2022-08-06T22:14:59.027Z,97079.00
2022-08-06T22:19:06.365Z,97070.00
2022-08-06T22:23:09.707Z,97075.00
2022-08-06T22:27:15.306Z,97074.00
2022-08-06T22:31:19.880Z,97078.00
2022-08-06T22:35:23.797Z,97085.00
2022-08-06T22:39:34.688Z,97083.00
2022-08-06T22:43:55.958Z,97082.00
2022-08-06T22:48:03.406Z,97089.00
2022-08-06T22:52:07.713Z,97090.00
2022-08-06T22:56:11.647Z,97086.00
2022-08-06T23:00:19.142Z,97087.00
2022-08-06T23:04:26.764Z,97080.00
2022-08-06T23:08:32.414Z,97084.00
2022-08-06T23:12:37.923Z,97072.00
2022-08-06T23:16:41.098Z,97069.00
2022-08-06T23:20:45.698Z,97065.00
2022-08-06T23:24:55.499Z,97064.00
2022-08-06T23:29:13.687Z,97060.00
2022-08-06T23:33:18.252Z,97061.00
2022-08-06T23:37:22.928Z,97054.00
2022-08-06T23:41:58.142Z,97056.00
2022-08-06T23:46:00.915Z,97059.00
2022-08-06T23:50:05.095Z,97059.00
2022-08-06T23:54:16.114Z,97057.00
2022-08-06T23:58:32.052Z,97058.00
